ミュンヘン の空港の天気 - METARとTAF

ミュンヘン国際空港 ( EDDM / MUC ) - ドイツ ミュンヘン
飛行場実況気象(Metar)
観測時間01/16 18:50 CET (01/16 17:50 UTC)
風向・風速西 5m/s
視程10km以上
天気現象
全天を覆う雲 雲底高度 910m
気温2℃
湿度75%
気圧1028hPa
METAREDDM 161750Z 26010KT 9999 OVC030 02/M02 Q1028 NOSIG
過去の天気等 Google飛行場航空写真 Wunderground天気予報

過去48時間のMETAR

飛行場予報(TAF)
発表時間: 1/16 18:00 CET (1/16 17:00 UTC)
予報対象時間: 16日19時 CET ~ 18日1時 CET
風向・風速西北西 5m/s
視程10km以上
全天の4割程度の雲 雲底高度 370m
16日22時 CET ~ 17日9時 CET に一時的に
視程4000m
天気現象弱い雪
全天の8割程度の雲 雲底高度 300m
17日9時 CET ~ 17日11時 CET に 確率 40% で一時的に
全天の8割程度の雲 雲底高度 370m
17日12時 CET ~ 17日19時 CET に 確率 30% で一時的に
風向・風速西 8m/s 瞬間風速 13m/s
TAF EDDM 161700Z 1618/1724 30010KT 9999 SCT012
TEMPO 1621/1708 4000 -SN BKN010
PROB40 TEMPO 1708/1710 BKN012
PROB30 TEMPO 1711/1718 26015G25KT